Time;durP1;ratioP1;P1;durP2;ratioP2;P2;SDS_P1;SDS_P2;PMS_P1;PMS_P2;Temp;Humidity;BMP_temperature;BMP_pressure;BME280_temperature;BME280_humidity;BME280_pressure;Samples;Min_cycle;Max_cycle;Signal;HPM_P1;HPM_P2
2021/11/17 09:02:41;;;;;;;24.90;6.47;;;9.70;99.90;;;;;;4847765;23;20334;-74
2021/11/17 09:05:11;;;;;;;21.93;6.33;;;9.70;99.90;;;;;;4940170;28;20251;-71
2021/11/17 09:07:39;;;;;;;22.70;6.13;;;9.70;99.90;;;;;;4961427;28;20303;-71
2021/11/17 09:10:08;;;;;;;21.50;6.23;;;9.80;99.90;;;;;;4946225;28;20256;-74
2021/11/17 09:12:34;;;;;;;18.73;5.57;;;9.90;99.90;;;;;;4935795;29;20219;-73
2021/11/17 09:15:01;;;;;;;19.77;6.77;;;10.00;99.90;;;;;;4935760;29;20217;-74
2021/11/17 09:17:28;;;;;;;23.17;5.60;;;10.20;99.90;;;;;;4935819;29;20205;-69
2021/11/17 09:19:57;;;;;;;20.63;5.63;;;10.30;99.90;;;;;;4935554;29;20255;-72
2021/11/17 09:22:24;;;;;;;20.63;5.83;;;10.40;99.90;;;;;;4935009;29;20421;-72
2021/11/17 09:24:51;;;;;;;15.93;5.40;;;10.30;99.90;;;;;;4935078;29;20252;-72
2021/11/17 09:27:19;;;;;;;17.43;5.50;;;10.30;99.90;;;;;;4934685;29;20209;-69
2021/11/17 09:29:46;;;;;;;20.50;6.33;;;10.40;99.90;;;;;;4933192;29;20232;-72
2021/11/17 09:32:14;;;;;;;15.03;4.83;;;10.30;99.90;;;;;;4934145;29;20204;-72
2021/11/17 09:34:42;;;;;;;19.20;5.50;;;10.20;99.90;;;;;;4933604;29;20215;-71
2021/11/17 09:37:11;;;;;;;18.23;5.13;;;10.00;99.90;;;;;;4933551;29;20204;-71
2021/11/17 09:39:40;;;;;;;19.97;6.07;;;10.10;99.90;;;;;;4933587;29;20229;-70
2021/11/17 09:42:08;;;;;;;19.00;5.87;;;10.20;99.90;;;;;;4933977;29;20660;-70
2021/11/17 09:44:40;;;;;;;13.97;4.87;;;10.20;99.90;;;;;;4933640;29;20240;-71
2021/11/17 09:47:11;;;;;;;18.27;5.53;;;10.20;99.90;;;;;;4933950;29;20269;-71
2021/11/17 09:49:44;;;;;;;22.93;5.87;;;10.20;99.90;;;;;;4933403;29;20587;-69
2021/11/17 09:52:16;;;;;;;17.40;5.10;;;10.20;99.90;;;;;;4933086;29;20209;-70
2021/11/17 09:54:49;;;;;;;16.47;5.77;;;10.30;99.90;;;;;;4933993;29;20209;-70
2021/11/17 09:57:18;;;;;;;17.50;5.93;;;10.20;99.90;;;;;;4953101;28;20659;-72
2021/11/17 09:59:47;;;;;;;17.20;5.13;;;10.20;99.90;;;;;;4936410;28;20242;-71
2021/11/17 10:02:18;;;;;;;15.33;5.43;;;10.30;99.90;;;;;;4933441;29;20650;-70
2021/11/17 10:04:50;;;;;;;18.03;5.47;;;10.40;99.90;;;;;;4933824;29;20603;-69
2021/11/17 10:07:55;;;;;;;14.80;5.43;;;10.30;99.90;;;;;;4935086;29;20512;-69
2021/11/17 10:13:16;;;;;;;19.17;6.40;;;10.40;99.90;;;;;;4937224;29;20669;-73
2021/11/17 10:15:46;;;;;;;20.33;6.57;;;10.50;99.90;;;;;;4932710;29;20213;-73
2021/11/17 10:18:37;;;;;;;18.87;6.03;;;10.60;99.90;;;;;;4938382;29;20300;-70
2021/11/17 10:21:08;;;;;;;21.53;6.40;;;10.80;99.90;;;;;;4934812;28;20212;-68
2021/11/17 10:23:53;;;;;;;16.73;5.73;;;10.70;99.90;;;;;;4937916;29;20668;-73
2021/11/17 10:26:21;;;;;;;20.47;6.20;;;10.80;99.90;;;;;;4938396;29;20201;-72
2021/11/17 10:28:52;;;;;;;24.57;6.27;;;10.90;99.90;;;;;;4938405;29;20235;-74
2021/11/17 10:31:47;;;;;;;16.30;5.73;;;11.00;99.90;;;;;;4938458;29;20303;-72
2021/11/17 10:34:18;;;;;;;14.00;5.47;;;11.00;99.90;;;;;;4938213;29;20217;-70
2021/11/17 10:36:56;;;;;;;16.73;6.03;;;10.90;99.90;;;;;;4938291;29;20215;-74
2021/11/17 10:39:27;;;;;;;15.43;5.70;;;10.90;99.90;;;;;;4937937;29;20583;-77
2021/11/17 10:41:58;;;;;;;17.93;5.00;;;11.00;99.90;;;;;;4938069;29;20205;-68
2021/11/17 10:44:46;;;;;;;17.50;6.00;;;10.90;99.90;;;;;;4937956;29;20236;-72
2021/11/17 10:47:20;;;;;;;18.00;6.27;;;10.80;99.90;;;;;;4938513;29;20212;-75
2021/11/17 10:49:49;;;;;;;17.23;5.90;;;10.80;99.90;;;;;;4937939;29;20231;-73
2021/11/17 10:52:23;;;;;;;15.10;6.03;;;10.80;99.90;;;;;;4938016;29;20213;-74
2021/11/17 10:54:54;;;;;;;18.57;6.67;;;10.90;99.90;;;;;;4939289;29;20219;-71
2021/11/17 10:57:23;;;;;;;17.97;6.10;;;10.80;99.90;;;;;;4957395;28;20215;-70
2021/11/17 10:59:52;;;;;;;19.97;5.60;;;10.90;99.90;;;;;;4949320;28;20568;-69
2021/11/17 11:02:19;;;;;;;15.30;6.13;;;11.00;99.90;;;;;;4938005;29;20216;-73
2021/11/17 11:04:50;;;;;;;16.87;5.93;;;11.20;99.90;;;;;;4937769;29;20703;-75
2021/11/17 11:07:25;;;;;;;16.03;6.37;;;11.10;99.90;;;;;;4937778;29;20211;-69
2021/11/17 11:09:58;;;;;;;17.93;6.53;;;11.10;99.90;;;;;;4937651;29;20236;-72
2021/11/17 11:12:27;;;;;;;18.00;6.07;;;11.00;99.90;;;;;;4938017;29;20672;-67
2021/11/17 11:14:58;;;;;;;18.30;5.97;;;10.90;99.90;;;;;;4937840;29;20205;-74
2021/11/17 11:17:35;;;;;;;17.77;6.60;;;10.90;99.90;;;;;;4937379;29;20205;-72
2021/11/17 11:20:37;;;;;;;18.80;7.20;;;10.90;99.90;;;;;;4937804;29;20229;-67
2021/11/17 11:23:17;;;;;;;16.87;6.73;;;10.80;99.90;;;;;;4937554;29;20208;-72
2021/11/17 11:26:04;;;;;;;20.13;6.70;;;10.80;99.90;;;;;;4937865;29;20236;-76
2021/11/17 11:28:35;;;;;;;16.67;5.73;;;10.80;99.90;;;;;;4937729;29;20252;-67
2021/11/17 11:31:40;;;;;;;19.70;7.07;;;10.90;99.90;;;;;;4937763;29;20215;-75
2021/11/17 11:34:31;;;;;;;16.37;5.93;;;11.00;99.90;;;;;;4937637;29;20690;-75
2021/11/17 11:36:59;;;;;;;22.77;6.73;;;11.20;99.90;;;;;;4937679;29;20213;-73
2021/11/17 11:39:38;;;;;;;15.93;5.67;;;11.30;99.90;;;;;;4937490;29;20231;-76
2021/11/17 11:42:40;;;;;;;15.27;5.90;;;11.30;99.90;;;;;;4937377;29;20219;-74
2021/11/17 11:45:42;;;;;;;18.83;6.73;;;11.30;99.90;;;;;;4933166;29;20331;-75
2021/11/17 11:48:11;;;;;;;16.60;6.70;;;11.30;99.90;;;;;;4937043;29;20204;-67
2021/11/17 11:51:05;;;;;;;19.77;5.97;;;11.40;99.90;;;;;;4937735;29;20213;-74
2021/11/17 11:54:06;;;;;;;19.30;7.40;;;11.40;99.90;;;;;;4937372;29;20205;-68
2021/11/17 11:56:47;;;;;;;16.87;6.97;;;11.30;99.90;;;;;;4932508;29;20209;-74
2021/11/17 11:59:18;;;;;;;19.20;6.63;;;11.40;99.90;;;;;;4937149;29;20323;-76
2021/11/17 12:01:47;;;;;;;17.93;6.47;;;11.40;99.90;;;;;;4936904;29;20223;-74
2021/11/17 12:04:21;;;;;;;20.97;6.80;;;11.40;99.90;;;;;;4936851;29;20248;-77
2021/11/17 12:06:53;;;;;;;17.93;7.00;;;11.40;99.90;;;;;;4937030;29;20300;-74
2021/11/17 12:09:25;;;;;;;17.93;6.10;;;11.50;99.90;;;;;;4937087;29;20235;-72
2021/11/17 12:11:56;;;;;;;13.30;5.80;;;11.50;99.90;;;;;;4936827;29;20215;-73
2021/11/17 12:14:40;;;;;;;18.53;6.13;;;11.70;99.90;;;;;;4937044;29;20215;-70
2021/11/17 12:17:10;;;;;;;16.10;5.87;;;11.80;99.90;;;;;;4936732;29;20664;-73
2021/11/17 12:19:42;;;;;;;14.40;5.93;;;11.80;99.90;;;;;;4936531;29;20261;-71
2021/11/17 12:22:14;;;;;;;16.77;5.53;;;11.90;99.90;;;;;;4936886;29;20241;-69
2021/11/17 12:24:43;;;;;;;14.27;5.37;;;12.20;99.90;;;;;;4936522;29;20726;-76
2021/11/17 12:27:13;;;;;;;15.47;5.00;;;12.30;99.90;;;;;;4936324;29;20215;-77
2021/11/17 12:29:53;;;;;;;15.90;5.10;;;12.10;99.90;;;;;;4935447;29;20261;-74
2021/11/17 12:32:30;;;;;;;11.13;4.50;;;12.10;99.90;;;;;;4936815;29;20629;-74
2021/11/17 12:35:01;;;;;;;13.83;5.00;;;12.10;99.90;;;;;;4936666;29;20208;-74
2021/11/17 12:37:31;;;;;;;12.83;5.40;;;12.10;99.90;;;;;;4936537;29;20300;-74
2021/11/17 12:40:02;;;;;;;11.43;4.93;;;12.20;99.90;;;;;;4936346;29;20319;-74
2021/11/17 12:42:33;;;;;;;13.73;5.23;;;12.20;99.90;;;;;;4936412;29;20215;-73
2021/11/17 12:45:13;;;;;;;14.53;5.00;;;12.30;99.90;;;;;;4936305;29;20239;-74
2021/11/17 12:47:47;;;;;;;12.30;5.17;;;12.40;99.90;;;;;;4936422;29;20209;-77
2021/11/17 12:50:18;;;;;;;12.17;5.30;;;12.50;99.90;;;;;;4936185;29;20560;-77
2021/11/17 12:52:47;;;;;;;15.30;5.73;;;12.50;99.90;;;;;;4934922;29;20205;-71
2021/11/17 12:55:19;;;;;;;14.17;5.33;;;12.50;99.90;;;;;;4936275;29;20215;-76
2021/11/17 12:57:51;;;;;;;15.50;5.27;;;12.40;99.90;;;;;;4936309;29;20213;-74
2021/11/17 13:00:48;;;;;;;11.43;5.47;;;12.30;99.90;;;;;;4936150;29;20260;-69
2021/11/17 13:03:37;;;;;;;12.67;5.60;;;12.40;99.90;;;;;;4935847;29;20220;-73
2021/11/17 13:06:07;;;;;;;12.80;5.20;;;12.40;99.90;;;;;;4935653;29;20236;-73
2021/11/17 13:08:36;;;;;;;11.00;5.33;;;12.60;99.90;;;;;;4935979;29;20344;-67
2021/11/17 13:11:10;;;;;;;18.70;6.17;;;12.60;99.90;;;;;;4936502;29;20219;-70
2021/11/17 13:13:45;;;;;;;13.27;5.37;;;12.60;99.90;;;;;;4936025;29;20218;-69
2021/11/17 13:16:14;;;;;;;14.67;6.33;;;12.60;99.90;;;;;;4935963;29;20212;-69
2021/11/17 13:18:55;;;;;;;11.70;5.57;;;12.60;99.90;;;;;;4935796;29;20591;-74
2021/11/17 13:21:33;;;;;;;19.10;5.67;;;12.50;99.90;;;;;;4935752;29;20204;-70
2021/11/17 13:24:27;;;;;;;12.17;5.90;;;12.50;99.90;;;;;;4935677;29;20668;-75
2021/11/17 13:27:20;;;;;;;15.17;5.30;;;12.50;99.90;;;;;;4935632;29;20224;-72
2021/11/17 13:29:51;;;;;;;18.87;5.93;;;12.50;99.90;;;;;;4935479;29;20243;-74
2021/11/17 13:32:26;;;;;;;14.57;5.57;;;12.60;99.90;;;;;;4935746;29;20213;-68
2021/11/17 13:34:57;;;;;;;16.07;5.80;;;12.50;99.90;;;;;;4935775;29;20252;-76
2021/11/17 13:37:36;;;;;;;12.30;5.67;;;12.50;99.90;;;;;;4935582;29;20219;-70
2021/11/17 13:40:07;;;;;;;16.50;6.23;;;12.40;99.90;;;;;;4935561;29;20228;-70
2021/11/17 13:42:34;;;;;;;16.33;5.80;;;12.30;99.90;;;;;;4939221;29;20703;-72
2021/11/17 13:45:05;;;;;;;16.33;6.43;;;12.40;99.90;;;;;;4939567;29;20552;-68
2021/11/17 13:47:32;;;;;;;11.10;5.43;;;12.40;99.90;;;;;;4939417;29;20208;-68
2021/11/17 13:50:02;;;;;;;14.73;6.10;;;12.40;99.90;;;;;;4939427;29;20255;-74
2021/11/17 13:52:32;;;;;;;16.13;6.10;;;12.60;99.90;;;;;;4939517;29;20686;-72
2021/11/17 13:55:00;;;;;;;13.50;7.13;;;12.60;99.90;;;;;;4939498;29;20224;-67
2021/11/17 13:57:28;;;;;;;11.37;4.97;;;12.60;99.90;;;;;;4939585;29;20212;-71
2021/11/17 13:59:55;;;;;;;14.07;5.70;;;12.70;99.90;;;;;;4939235;29;20235;-72
2021/11/17 14:02:21;;;;;;;13.33;5.33;;;12.80;99.90;;;;;;4939050;29;20220;-71
2021/11/17 14:04:48;;;;;;;11.70;5.13;;;12.80;99.90;;;;;;4939033;29;20236;-71
2021/11/17 14:07:20;;;;;;;13.63;4.83;;;12.90;99.90;;;;;;4939014;29;20209;-73
2021/11/17 14:09:47;;;;;;;14.37;5.27;;;13.10;99.90;;;;;;4938788;29;20229;-76
2021/11/17 14:12:14;;;;;;;14.33;5.57;;;13.10;99.90;;;;;;4938593;29;20664;-72
2021/11/17 14:14:42;;;;;;;13.47;5.50;;;13.20;99.90;;;;;;4938901;29;20224;-75
2021/11/17 14:17:09;;;;;;;15.07;6.10;;;13.10;99.90;;;;;;4939081;29;20208;-69
2021/11/17 14:19:37;;;;;;;14.27;5.53;;;13.00;99.90;;;;;;4938632;29;20235;-72
2021/11/17 14:22:05;;;;;;;11.93;5.20;;;13.00;99.90;;;;;;4938828;29;20219;-73
2021/11/17 14:24:33;;;;;;;13.40;5.20;;;13.00;99.90;;;;;;4938760;29;20212;-76
2021/11/17 14:27:01;;;;;;;13.53;5.33;;;13.00;99.90;;;;;;4938740;29;20208;-69
2021/11/17 14:29:33;;;;;;;14.70;6.17;;;13.00;99.90;;;;;;4938553;29;20264;-76
2021/11/17 14:32:06;;;;;;;14.53;5.10;;;12.90;99.90;;;;;;4938592;29;20727;-73
2021/11/17 14:34:33;;;;;;;17.97;6.07;;;12.90;99.90;;;;;;4938665;29;20256;-70
2021/11/17 14:37:04;;;;;;;12.50;5.20;;;12.80;99.90;;;;;;4938497;29;20209;-76
2021/11/17 14:39:33;;;;;;;10.37;4.70;;;12.80;99.90;;;;;;4938518;29;20240;-75
2021/11/17 14:42:01;;;;;;;10.30;4.70;;;12.60;99.90;;;;;;4938633;29;20212;-71
2021/11/17 14:44:28;;;;;;;11.83;4.57;;;12.60;99.90;;;;;;4938726;29;20213;-72
2021/11/17 14:46:54;;;;;;;11.17;4.03;;;12.50;99.90;;;;;;4938335;29;20573;-74
2021/11/17 14:49:22;;;;;;;12.67;4.47;;;12.50;99.90;;;;;;4938056;29;20315;-77
2021/11/17 14:51:49;;;;;;;9.90;4.13;;;12.40;99.90;;;;;;4937927;29;20205;-73
2021/11/17 14:54:16;;;;;;;12.13;3.07;;;12.40;99.90;;;;;;4937851;29;20213;-75
2021/11/17 14:56:46;;;;;;;12.97;3.47;;;12.20;99.90;;;;;;4938408;29;20213;-71
